createdAt,value
2017-06-16T04:54:44.411Z,1012.81
2017-06-16T04:55:45.829Z,1012.81
2017-06-16T04:57:07.493Z,1012.81
2017-06-16T04:58:08.909Z,1012.76
2017-06-16T04:59:30.517Z,1012.77
2017-06-16T05:00:31.932Z,1012.75
2017-06-16T05:01:53.511Z,1012.83
2017-06-16T05:02:54.926Z,1012.81
2017-06-16T05:04:16.526Z,1012.82
2017-06-16T05:05:17.938Z,1012.86
2017-06-16T05:06:39.524Z,1012.87
2017-06-16T05:07:40.942Z,1012.89
2017-06-16T05:09:03.576Z,1012.90
2017-06-16T05:10:05.005Z,1012.86
2017-06-16T05:11:26.587Z,1012.89
2017-06-16T05:12:27.999Z,1012.91
2017-06-16T05:13:49.589Z,1012.88
2017-06-16T05:14:51.011Z,1012.88
2017-06-16T05:16:12.547Z,1012.90
2017-06-16T05:17:13.969Z,1012.86
2017-06-16T05:18:35.592Z,1012.89
2017-06-16T05:19:37.024Z,1012.83
2017-06-16T05:20:58.632Z,1012.82
2017-06-16T05:22:00.052Z,1012.82
2017-06-16T05:23:21.626Z,1012.84
2017-06-16T05:24:23.041Z,1012.79
2017-06-16T05:25:44.644Z,1012.81
2017-06-16T05:26:46.061Z,1012.84
2017-06-16T05:28:07.650Z,1012.84
2017-06-16T05:29:09.066Z,1012.83
2017-06-16T05:30:33.690Z,1012.86
2017-06-16T06:45:10.467Z,1013.22
2017-06-16T06:46:21.495Z,1013.18
2017-06-16T06:47:22.913Z,1013.22
2017-06-16T06:48:13.404Z,1013.25
2017-06-16T06:49:14.818Z,1013.29
2017-06-16T06:50:36.349Z,1013.38
2017-06-16T06:51:38.334Z,1013.75
2017-06-16T06:53:00.133Z,1013.69
2017-06-16T06:54:01.919Z,1013.74
2017-06-16T06:55:03.709Z,1013.73
2017-06-16T06:56:05.432Z,1013.79
2017-06-16T06:57:06.840Z,1013.88
2017-06-16T06:58:49.189Z,1013.80
2017-06-16T06:59:50.976Z,1013.80
2017-06-16T07:00:52.776Z,1013.77
2017-06-16T07:01:54.167Z,1013.82
2017-06-16T07:02:55.953Z,1013.79
2017-06-16T07:03:57.916Z,1013.75
2017-06-16T07:05:40.280Z,1013.75
2017-06-16T07:06:42.552Z,1013.76
2017-06-16T07:07:45.263Z,1013.77
2017-06-16T07:08:46.885Z,1013.79
2017-06-16T07:09:49.577Z,1013.88
2017-06-16T07:10:51.620Z,1013.87
2017-06-16T07:12:33.932Z,1013.93
2017-06-16T07:13:35.803Z,1013.87
2017-06-16T07:14:37.616Z,1013.94
2017-06-16T07:15:39.455Z,1014.00
2017-06-16T07:16:41.401Z,1013.95
2017-06-16T07:17:44.049Z,1013.96
2017-06-16T07:18:47.462Z,1013.92
2017-06-16T07:20:30.017Z,1013.96
2017-06-16T07:21:31.784Z,1013.95
2017-06-16T07:22:53.654Z,1013.85
2017-06-16T07:30:11.450Z,1014.10
2017-06-16T07:31:13.291Z,1014.04
2017-06-16T07:32:15.365Z,1014.10
2017-06-16T07:33:17.143Z,1014.19
2017-06-16T07:34:19.776Z,1014.21
2017-06-16T07:35:26.493Z,1014.32
2017-06-16T07:36:28.561Z,1014.24
2017-06-16T07:37:30.314Z,1014.27
2017-06-16T07:38:32.077Z,1014.15
2017-06-16T07:39:33.867Z,1014.19
2017-06-16T07:40:35.668Z,1014.26
2017-06-16T07:41:37.046Z,1014.36
2017-06-16T07:42:38.845Z,1014.42
2017-06-16T07:43:40.654Z,1014.31
2017-06-16T07:44:42.522Z,1014.30
2017-06-16T07:45:44.319Z,1014.25
2017-06-16T07:46:46.147Z,1014.17
2017-06-16T07:47:48.353Z,1014.07
2017-06-16T07:48:50.144Z,1014.17
2017-06-16T07:49:52.768Z,1014.19
2017-06-16T07:50:55.058Z,1014.28
2017-06-16T07:51:56.799Z,1014.32
2017-06-16T07:52:59.065Z,1014.31
2017-06-16T07:54:01.036Z,1014.29
2017-06-16T07:55:05.210Z,1014.36
2017-06-16T07:56:07.826Z,1014.31
2017-06-16T07:57:09.730Z,1014.40
2017-06-16T07:58:11.538Z,1014.48
2017-06-16T07:59:13.657Z,1014.30
2017-06-16T08:00:15.576Z,1014.27
2017-06-16T08:01:17.623Z,1014.46
2017-06-16T08:02:19.676Z,1014.57
2017-06-16T08:03:22.731Z,1014.34
2017-06-16T08:04:28.048Z,1014.28
2017-06-16T08:05:30.567Z,1014.47
2017-06-16T08:06:32.984Z,1014.39
2017-06-16T08:07:35.208Z,1014.32
2017-06-16T08:09:09.274Z,1013.63
2017-06-16T08:10:10.998Z,1013.69
2017-06-16T11:07:24.181Z,1015.55
2017-06-16T11:08:25.687Z,1015.51
2017-06-16T11:09:27.223Z,1015.56
2017-06-16T11:10:28.864Z,1015.56
2017-06-16T11:11:30.378Z,1015.54
2017-06-16T11:13:11.900Z,1015.53
2017-06-16T11:14:13.407Z,1015.50
2017-06-16T11:15:16.859Z,1015.55
2017-06-16T11:16:18.731Z,1015.56
2017-06-16T11:17:20.209Z,1015.54
2017-06-16T11:19:01.981Z,1015.52
2017-06-16T11:20:04.084Z,1015.55
2017-06-16T11:21:06.169Z,1015.61
2017-06-16T11:22:09.462Z,1015.58
2017-06-16T11:23:10.977Z,1015.63
2017-06-16T11:24:51.174Z,1015.60
2017-06-16T11:25:52.655Z,1015.60
2017-06-16T11:26:55.398Z,1015.66
2017-06-16T11:27:56.927Z,1015.67
2017-06-16T11:28:58.474Z,1015.65
2017-06-16T11:30:39.452Z,1016.01
2017-06-16T11:31:40.979Z,1016.01
2017-06-16T11:32:42.480Z,1016.04
2017-06-16T11:33:43.982Z,1016.07
2017-06-16T11:34:45.567Z,1016.06
2017-06-16T11:36:26.609Z,1016.00
2017-06-16T11:37:28.114Z,1016.03
2017-06-16T11:38:29.631Z,1016.28
2017-06-16T11:39:37.050Z,1016.04
2017-06-16T11:40:38.657Z,1016.04
2017-06-16T11:42:19.581Z,1016.11
2017-06-16T11:43:21.103Z,1016.11
2017-06-16T11:44:22.601Z,1016.14
2017-06-16T11:45:24.265Z,1016.13
2017-06-16T11:46:25.797Z,1016.20
2017-06-16T11:47:27.346Z,1016.27
2017-06-16T11:48:28.836Z,1016.32
2017-06-16T11:49:30.364Z,1016.29
2017-06-16T11:50:31.988Z,1016.29
2017-06-16T11:52:15.142Z,1016.29
2017-06-16T11:53:16.652Z,1016.33
2017-06-16T11:54:18.269Z,1016.26
2017-06-16T11:55:20.081Z,1016.22
2017-06-16T11:56:27.648Z,1016.22
2017-06-16T11:58:08.584Z,1016.20
2017-06-16T11:59:10.304Z,1016.13
2017-06-16T12:00:11.828Z,1016.18
2017-06-16T12:01:13.604Z,1016.25
2017-06-16T12:02:15.206Z,1016.14
2017-06-16T12:03:16.728Z,1016.17
2017-06-16T12:04:18.281Z,1016.25
2017-06-16T12:05:21.333Z,1016.30
2017-06-16T12:06:22.872Z,1016.35
2017-06-16T12:07:28.303Z,1016.36
2017-06-16T12:08:29.825Z,1016.30
2017-06-16T12:09:31.387Z,1016.29
2017-06-16T12:10:32.895Z,1016.39
2017-06-16T12:11:34.689Z,1016.33
2017-06-16T12:12:36.181Z,1016.33
2017-06-16T12:13:37.693Z,1016.28
2017-06-16T12:14:44.001Z,1016.34
2017-06-16T12:15:45.765Z,1016.32
2017-06-16T12:16:48.680Z,1016.25
2017-06-16T12:17:50.219Z,1016.24
2017-06-16T12:18:51.725Z,1016.18
2017-06-16T12:19:53.431Z,1016.24
2017-06-16T12:20:57.558Z,1016.16
2017-06-16T12:22:00.553Z,1016.18
2017-06-16T12:23:04.563Z,1016.21
2017-06-16T12:24:05.994Z,1016.14
2017-06-16T12:25:07.519Z,1016.11
2017-06-16T12:26:09.037Z,1016.17
2017-06-16T12:27:10.703Z,1016.13
2017-06-16T12:28:12.407Z,1016.15
2017-06-16T12:29:13.925Z,1016.29
2017-06-16T12:30:15.404Z,1016.27
2017-06-16T12:31:16.910Z,1016.41
2017-06-16T12:32:19.039Z,1016.45
2017-06-16T12:33:21.728Z,1016.50
2017-06-16T12:34:23.249Z,1016.52
2017-06-16T12:35:24.771Z,1016.48
2017-06-16T12:36:26.274Z,1016.50
2017-06-16T12:37:27.793Z,1016.61
2017-06-16T12:38:29.486Z,1016.57
2017-06-16T12:39:30.976Z,1016.55
2017-06-16T12:40:32.496Z,1016.42
2017-06-16T12:41:34.097Z,1016.61
2017-06-16T12:42:35.625Z,1016.33
2017-06-16T12:43:37.094Z,1016.33
2017-06-16T12:44:38.904Z,1016.38
2017-06-16T12:45:40.401Z,1016.37
2017-06-16T12:46:41.978Z,1016.37
2017-06-16T12:47:43.530Z,1016.26
2017-06-16T12:48:45.039Z,1016.18
2017-06-16T12:49:47.046Z,1016.15
2017-06-16T12:50:48.561Z,1016.13
2017-06-16T12:51:50.083Z,1016.06
2017-06-16T12:52:51.601Z,1016.02
2017-06-16T12:53:53.141Z,1016.02
2017-06-16T12:54:54.762Z,1016.00
2017-06-16T12:55:56.292Z,1016.03
2017-06-16T12:56:57.808Z,1016.00
2017-06-16T12:57:59.345Z,1015.99
2017-06-16T12:59:00.855Z,1016.00
2017-06-16T13:00:02.350Z,1016.06
2017-06-16T13:01:03.842Z,1016.03
2017-06-16T13:02:05.330Z,1016.05
2017-06-16T13:03:06.933Z,1016.10
2017-06-16T13:04:08.454Z,1016.08
2017-06-16T13:05:10.035Z,1016.12
2017-06-16T13:06:15.178Z,1016.19
2017-06-16T13:07:17.889Z,1016.25
2017-06-16T13:08:19.384Z,1016.27
2017-06-16T13:09:20.872Z,1016.28
2017-06-16T13:10:22.377Z,1016.27
2017-06-16T13:11:24.704Z,1016.25
2017-06-16T13:12:26.381Z,1016.29
2017-06-16T13:13:27.905Z,1016.24
2017-06-16T13:14:29.388Z,1016.21
2017-06-16T13:15:30.899Z,1016.15
2017-06-16T13:16:37.476Z,1016.07
2017-06-16T13:17:39.034Z,1016.09
2017-06-16T13:18:40.589Z,1016.10
2017-06-16T13:19:44.115Z,1016.06
2017-06-16T13:20:45.587Z,1016.20
2017-06-16T13:21:47.091Z,1016.21
2017-06-16T13:22:48.747Z,1016.19
2017-06-16T13:23:50.618Z,1016.18
2017-06-16T13:24:52.217Z,1016.22
2017-06-16T13:26:33.149Z,1016.38
2017-06-16T13:27:34.687Z,1016.44
2017-06-16T13:28:41.161Z,1016.49
2017-06-16T13:29:42.896Z,1016.42
2017-06-16T13:30:44.440Z,1016.35
2017-06-16T13:31:45.935Z,1016.39
2017-06-16T13:32:47.424Z,1016.39
2017-06-16T13:33:48.915Z,1016.41
2017-06-16T13:34:50.404Z,1016.45
2017-06-16T13:35:51.892Z,1016.20
2017-06-16T13:37:32.868Z,1016.61
2017-06-16T13:38:34.320Z,1016.55
2017-06-16T13:39:35.793Z,1016.54
2017-06-16T13:40:37.286Z,1016.53
2017-06-16T13:41:39.059Z,1016.60
2017-06-16T13:42:40.527Z,1016.62
2017-06-16T13:43:41.968Z,1016.62
2017-06-16T13:44:43.420Z,1016.63
2017-06-16T13:45:49.821Z,1016.64
2017-06-16T13:46:52.935Z,1016.60
2017-06-16T13:47:55.309Z,1016.69
2017-06-16T13:48:56.841Z,1016.76
2017-06-16T13:49:58.805Z,1016.73
2017-06-16T13:51:00.299Z,1016.69
2017-06-16T13:52:05.191Z,1016.73
2017-06-16T13:53:07.481Z,1016.74
2017-06-16T13:54:09.622Z,1016.76
2017-06-16T13:55:12.026Z,1016.76
2017-06-16T13:56:13.562Z,1016.70
2017-06-16T13:57:15.981Z,1016.75
2017-06-16T13:58:17.463Z,1016.70
2017-06-16T13:59:19.068Z,1016.76
2017-06-16T14:00:20.822Z,1016.74
2017-06-16T14:01:25.083Z,1016.74
2017-06-16T14:02:26.999Z,1016.78
2017-06-16T14:03:28.537Z,1016.79
2017-06-16T14:04:31.380Z,1016.89
2017-06-16T14:05:32.890Z,1016.81
2017-06-16T14:06:35.412Z,1016.82
2017-06-16T14:07:37.029Z,1016.80
2017-06-16T14:08:40.976Z,1016.82
2017-06-16T14:09:42.878Z,1016.86
2017-06-16T14:10:45.603Z,1016.83
2017-06-16T14:11:48.216Z,1016.78
2017-06-16T14:12:49.756Z,1016.86
2017-06-16T14:13:51.220Z,1016.82
2017-06-16T14:14:52.682Z,1016.85
2017-06-16T14:15:54.143Z,1016.81
2017-06-16T14:16:55.648Z,1016.82
2017-06-16T14:17:57.175Z,1016.78
2017-06-16T14:18:58.657Z,1016.77
2017-06-16T14:20:00.125Z,1016.78
2017-06-16T14:21:01.608Z,1016.88
2017-06-16T14:22:03.115Z,1016.83
2017-06-16T14:23:04.574Z,1016.85
2017-06-16T14:24:06.062Z,1016.88
2017-06-16T14:25:07.537Z,1016.91
2017-06-16T14:26:09.115Z,1016.92
2017-06-16T14:27:10.615Z,1016.94
2017-06-16T14:28:12.087Z,1016.96
2017-06-16T14:29:13.628Z,1016.93
2017-06-16T14:30:15.086Z,1016.99
2017-06-16T14:31:16.549Z,1016.91
2017-06-16T14:32:18.018Z,1016.95
2017-06-16T14:33:19.469Z,1016.93
2017-06-16T14:34:20.921Z,1016.95
2017-06-16T14:35:22.386Z,1016.97
2017-06-16T14:36:23.864Z,1016.99
2017-06-16T14:37:25.397Z,1016.98
2017-06-16T14:38:26.871Z,1017.02
2017-06-16T14:39:28.354Z,1017.03
2017-06-16T14:40:29.838Z,1017.04
2017-06-16T14:41:31.320Z,1017.09
2017-06-16T14:42:32.813Z,1017.10
2017-06-16T14:43:34.377Z,1017.10
2017-06-16T14:44:35.870Z,1017.13
2017-06-16T14:45:37.451Z,1017.10
2017-06-16T14:46:39.031Z,1017.11
2017-06-16T14:47:40.535Z,1017.14
2017-06-16T14:48:42.044Z,1017.20
2017-06-16T14:49:43.519Z,1017.14
2017-06-16T14:50:44.976Z,1017.20
2017-06-16T14:51:46.438Z,1017.21
2017-06-16T14:52:47.932Z,1017.17
2017-06-16T14:53:49.421Z,1017.17
2017-06-16T14:54:50.892Z,1017.20
2017-06-16T14:55:52.353Z,1017.23
2017-06-16T14:56:53.828Z,1017.23
2017-06-16T14:57:55.346Z,1017.32
2017-06-16T14:58:56.817Z,1017.31
2017-06-16T14:59:58.274Z,1017.30
2017-06-16T15:00:59.750Z,1017.26
2017-06-16T15:02:01.218Z,1017.30
2017-06-16T15:03:02.714Z,1017.33
2017-06-16T15:04:04.201Z,1017.30
2017-06-16T15:05:05.657Z,1017.37
2017-06-16T15:06:07.125Z,1017.29
2017-06-16T15:07:08.595Z,1017.33
2017-06-16T15:08:10.081Z,1017.34
2017-06-16T15:09:11.562Z,1017.29
2017-06-16T15:10:13.011Z,1017.29
2017-06-16T15:11:14.482Z,1017.25
2017-06-16T15:12:15.944Z,1017.28
2017-06-16T15:13:17.435Z,1017.28
2017-06-16T15:14:18.895Z,1017.27
2017-06-16T15:15:20.347Z,1017.29
2017-06-16T15:16:21.800Z,1017.34
2017-06-16T15:17:23.251Z,1017.34
2017-06-16T15:18:24.753Z,1017.29
2017-06-16T15:19:26.207Z,1017.28
2017-06-16T15:20:28.839Z,1017.30
2017-06-16T15:21:31.205Z,1017.36
2017-06-16T15:22:33.013Z,1017.34
2017-06-16T15:23:34.515Z,1017.29
2017-06-16T15:24:36.005Z,1017.31
2017-06-16T15:25:37.454Z,1017.26
2017-06-16T15:26:38.908Z,1017.31
2017-06-16T15:27:40.377Z,1017.43
2017-06-16T15:28:41.860Z,1017.40
2017-06-16T15:29:43.315Z,1017.42
2017-06-16T15:30:44.777Z,1017.42
2017-06-16T15:31:46.242Z,1017.47
2017-06-16T15:32:47.744Z,1017.48
2017-06-16T15:33:49.225Z,1017.51
2017-06-16T15:34:50.695Z,1017.46
2017-06-16T15:35:52.172Z,1017.46
2017-06-16T15:36:53.619Z,1017.46
2017-06-16T15:37:55.096Z,1017.39
2017-06-16T15:38:56.585Z,1017.37
2017-06-16T15:39:58.042Z,1017.42
2017-06-16T15:40:59.498Z,1017.40
2017-06-16T15:42:00.964Z,1017.42
2017-06-16T15:43:02.417Z,1017.38
2017-06-16T15:44:03.913Z,1017.42
2017-06-16T15:45:05.385Z,1017.45
2017-06-16T15:46:06.857Z,1017.42
2017-06-16T15:47:08.315Z,1017.43
2017-06-16T15:48:09.793Z,1017.47
2017-06-16T15:49:11.304Z,1017.44
2017-06-16T15:50:12.786Z,1017.45
2017-06-16T15:51:14.248Z,1017.44
2017-06-16T15:52:15.711Z,1017.51
2017-06-16T15:53:17.169Z,1017.51
2017-06-16T15:54:18.666Z,1017.48
2017-06-16T15:55:20.123Z,1017.55
2017-06-16T15:56:21.583Z,1017.58
2017-06-16T15:57:23.039Z,1017.53
2017-06-16T15:58:24.512Z,1017.56
2017-06-16T15:59:26.016Z,1017.60
2017-06-16T16:00:27.477Z,1017.55
2017-06-16T16:01:28.943Z,1017.55
2017-06-16T16:02:30.426Z,1017.60
2017-06-16T16:03:31.879Z,1017.67
2017-06-16T16:04:33.374Z,1017.63
2017-06-16T16:05:34.824Z,1017.66
2017-06-16T16:06:36.369Z,1017.70
2017-06-16T16:07:37.819Z,1017.69
2017-06-16T16:08:39.283Z,1017.70
2017-06-16T16:09:40.759Z,1017.66
2017-06-16T16:10:42.213Z,1017.69
2017-06-16T16:11:43.674Z,1017.70
2017-06-16T16:12:45.137Z,1017.68
2017-06-16T16:13:46.593Z,1017.76
2017-06-16T16:14:48.099Z,1017.81
2017-06-16T16:15:49.561Z,1017.77
2017-06-16T16:16:51.010Z,1017.83
2017-06-16T16:17:52.470Z,1017.82
2017-06-16T16:18:53.920Z,1017.79
2017-06-16T16:19:55.425Z,1017.93
2017-06-16T16:20:56.875Z,1017.93
2017-06-16T16:21:58.327Z,1017.92
2017-06-16T16:22:59.826Z,1017.89
2017-06-16T16:24:01.307Z,1017.87
2017-06-16T16:25:02.792Z,1017.93
2017-06-16T16:26:04.257Z,1017.93
2017-06-16T16:27:05.711Z,1017.88
2017-06-16T16:28:07.182Z,1017.89
2017-06-16T16:29:08.655Z,1017.82
2017-06-16T16:30:10.149Z,1017.86
2017-06-16T16:31:12.578Z,1017.90
2017-06-16T16:32:14.040Z,1017.92
2017-06-16T16:33:15.506Z,1017.95
2017-06-16T16:34:17.255Z,1018.01
2017-06-16T16:35:18.740Z,1018.03
2017-06-16T16:36:20.203Z,1018.01
2017-06-16T16:37:21.690Z,1018.02
2017-06-16T16:38:23.151Z,1018.00
2017-06-16T16:39:24.662Z,1018.00
2017-06-16T16:40:26.146Z,1018.02
2017-06-16T16:41:27.630Z,1017.97
2017-06-16T16:42:29.085Z,1018.04
2017-06-16T16:43:30.563Z,1017.98
2017-06-16T16:44:32.026Z,1017.96
2017-06-16T16:45:33.500Z,1018.01
2017-06-16T16:46:34.978Z,1017.91
2017-06-16T16:47:36.414Z,1017.98
2017-06-16T16:48:37.880Z,1018.00
2017-06-16T16:49:39.359Z,1017.95
2017-06-16T16:50:40.859Z,1018.02
2017-06-16T16:51:42.333Z,1018.02
2017-06-16T16:52:43.804Z,1018.08
2017-06-16T16:53:45.292Z,1018.08
2017-06-16T16:54:46.762Z,1018.11
2017-06-16T16:55:48.265Z,1018.10
2017-06-16T16:56:49.755Z,1018.15
2017-06-16T16:57:51.221Z,1018.16
2017-06-16T16:58:52.707Z,1018.05
2017-06-16T16:59:54.184Z,1018.14
2017-06-16T17:00:55.823Z,1018.16
2017-06-16T17:01:57.290Z,1018.23
2017-06-16T17:02:58.778Z,1018.20
2017-06-16T17:04:00.256Z,1018.17
2017-06-16T17:05:01.719Z,1018.24
2017-06-16T17:06:03.224Z,1018.22
2017-06-16T17:07:04.718Z,1018.22
2017-06-16T17:08:06.213Z,1018.20
2017-06-16T17:09:07.682Z,1018.23
2017-06-16T17:10:09.172Z,1018.15
2017-06-16T17:11:11.276Z,1018.21
2017-06-16T17:12:12.757Z,1018.15
2017-06-16T17:13:14.239Z,1018.19
2017-06-16T17:14:15.699Z,1018.20
2017-06-16T17:15:17.203Z,1018.23
2017-06-16T17:16:18.738Z,1018.27
2017-06-16T17:17:20.440Z,1018.26
2017-06-16T17:18:21.921Z,1018.26
2017-06-16T17:19:23.418Z,1018.23
2017-06-16T17:20:24.886Z,1018.29
2017-06-16T17:21:26.789Z,1018.28
2017-06-16T17:22:28.260Z,1018.21
2017-06-16T17:23:29.761Z,1018.24
2017-06-16T17:24:31.343Z,1018.27
2017-06-16T17:25:32.813Z,1018.26
2017-06-16T17:26:34.328Z,1018.28
2017-06-16T17:27:35.786Z,1018.29
2017-06-16T17:28:37.254Z,1018.32
2017-06-16T17:29:38.741Z,1018.36
2017-06-16T17:30:40.352Z,1018.29
2017-06-16T17:31:41.860Z,1018.33
2017-06-16T17:32:43.345Z,1018.32
2017-06-16T17:33:44.825Z,1018.32
2017-06-16T17:34:46.292Z,1018.37
2017-06-16T17:35:47.765Z,1018.37
2017-06-16T17:36:49.248Z,1018.40
2017-06-16T17:37:50.723Z,1018.39
2017-06-16T17:38:52.197Z,1018.34
2017-06-16T17:39:56.251Z,1018.43
2017-06-16T17:40:57.796Z,1018.50
2017-06-16T17:41:59.301Z,1018.52
2017-06-16T17:43:00.770Z,1018.48
2017-06-16T17:44:02.262Z,1018.42
2017-06-16T17:45:03.738Z,1018.50
2017-06-16T17:46:05.353Z,1018.49
2017-06-16T17:47:06.868Z,1018.48
2017-06-16T17:48:08.393Z,1018.51
2017-06-16T17:49:09.954Z,1018.46
2017-06-16T17:50:11.415Z,1018.50
2017-06-16T17:51:12.888Z,1018.48
2017-06-16T17:52:14.394Z,1018.49
2017-06-16T17:53:15.874Z,1018.51
2017-06-16T17:54:17.408Z,1018.58
2017-06-16T17:55:18.958Z,1018.60
2017-06-16T17:56:22.844Z,1018.54
2017-06-16T17:57:24.321Z,1018.53
2017-06-16T17:58:25.838Z,1018.56
2017-06-16T17:59:27.368Z,1018.57
2017-06-16T18:00:29.930Z,1018.58
2017-06-16T18:01:32.734Z,1018.64
2017-06-16T18:02:35.475Z,1018.61
2017-06-16T18:03:36.798Z,1018.69
2017-06-16T18:04:38.628Z,1018.70
2017-06-16T18:05:40.140Z,1018.78
2017-06-16T18:06:41.644Z,1018.77
2017-06-16T18:07:43.145Z,1018.80
2017-06-16T18:08:44.881Z,1018.84
2017-06-16T18:09:46.831Z,1018.84
2017-06-16T18:10:48.324Z,1018.90
2017-06-16T18:11:49.862Z,1018.93
2017-06-16T18:12:51.378Z,1018.90
2017-06-16T18:13:56.211Z,1018.91
2017-06-16T18:14:57.845Z,1018.85
2017-06-16T18:15:59.349Z,1018.86
2017-06-16T18:17:00.818Z,1018.94
2017-06-16T18:18:02.362Z,1018.95
2017-06-16T18:19:08.711Z,1018.92
2017-06-16T18:20:11.451Z,1018.96
2017-06-16T18:21:12.936Z,1019.02
2017-06-16T18:22:14.410Z,1019.03
2017-06-16T18:23:18.719Z,1019.05
2017-06-16T18:24:20.638Z,1019.76
2017-06-16T18:25:26.423Z,1020.30
2017-06-16T18:27:43.551Z,1021.72
2017-06-16T18:28:50.503Z,1021.44
2017-06-16T18:29:55.479Z,1022.35
2017-06-16T18:30:56.941Z,1022.46
2017-06-16T18:32:03.478Z,1022.61
2017-06-16T18:33:05.009Z,1022.39
2017-06-16T18:34:08.052Z,1021.35
2017-06-16T18:35:13.342Z,1022.69
2017-06-16T18:36:19.311Z,1024.69
2017-06-16T18:37:25.490Z,1023.29
2017-06-16T18:38:29.883Z,1025.62
2017-06-16T18:39:35.198Z,1025.26
2017-06-16T18:40:39.097Z,1026.04
2017-06-16T18:48:32.357Z,1022.49
2017-06-16T18:49:33.818Z,1019.67
2017-06-16T18:50:35.352Z,1019.09
2017-06-16T18:51:41.923Z,1019.04
2017-06-16T18:52:44.073Z,1019.03
2017-06-16T18:53:45.592Z,1019.05
2017-06-16T18:54:47.079Z,1019.04
2017-06-16T18:55:48.590Z,1019.07
2017-06-16T18:56:56.000Z,1019.04
2017-06-16T18:57:57.612Z,1019.03
2017-06-16T18:58:59.875Z,1019.05
2017-06-16T19:00:01.379Z,1019.11
2017-06-16T19:01:02.913Z,1019.15
2017-06-16T19:02:05.918Z,1019.16
2017-06-16T19:04:39.645Z,1019.19
2017-06-16T19:05:41.249Z,1019.21
2017-06-16T19:06:42.702Z,1019.20
2017-06-16T19:07:44.164Z,1019.16
2017-06-16T19:08:47.431Z,1019.18
2017-06-16T19:09:48.923Z,1019.21
2017-06-16T19:10:54.192Z,1019.23
2017-06-16T19:11:55.759Z,1019.23
2017-06-16T19:12:58.536Z,1019.21
2017-06-16T19:13:59.980Z,1019.18
2017-06-16T19:15:02.195Z,1019.18
2017-06-16T19:16:05.977Z,1019.21
2017-06-16T19:17:07.437Z,1019.23
2017-06-16T19:18:08.868Z,1019.25
2017-06-16T19:19:10.298Z,1019.24
2017-06-16T19:20:13.010Z,1019.23
2017-06-16T19:21:14.441Z,1019.26
2017-06-16T19:22:16.026Z,1019.25
2017-06-16T19:23:18.902Z,1019.29
2017-06-16T19:24:20.340Z,1019.27
2017-06-16T19:25:22.651Z,1019.28
2017-06-16T19:26:24.125Z,1019.29
2017-06-16T19:27:27.291Z,1019.26
2017-06-16T19:28:29.376Z,1019.29
2017-06-16T19:29:31.631Z,1019.26
2017-06-16T19:30:34.090Z,1019.27
2017-06-16T19:31:36.725Z,1019.28
2017-06-16T19:32:38.886Z,1019.32
2017-06-16T19:33:40.337Z,1019.31
2017-06-16T19:34:41.820Z,1019.30
2017-06-16T19:35:43.254Z,1019.35
2017-06-16T19:36:49.389Z,1019.37
2017-06-16T19:37:50.883Z,1019.34
2017-06-16T19:38:52.358Z,1019.28
2017-06-16T19:39:55.360Z,1019.30
2017-06-16T19:40:56.790Z,1019.29
2017-06-16T19:41:58.251Z,1019.28
2017-06-16T19:42:59.907Z,1019.29
2017-06-16T19:44:02.249Z,1019.32
2017-06-16T19:45:03.949Z,1019.28
2017-06-16T19:46:05.431Z,1019.28
2017-06-16T19:47:07.473Z,1019.28
2017-06-16T19:48:08.959Z,1019.29
2017-06-16T19:49:11.209Z,1019.35
2017-06-16T19:50:12.797Z,1019.36
2017-06-16T19:51:14.356Z,1019.33
2017-06-16T19:52:15.998Z,1019.35
2017-06-16T19:53:17.673Z,1019.41
2017-06-16T19:54:19.329Z,1019.40
2017-06-16T19:55:20.765Z,1019.47
2017-06-16T19:56:23.371Z,1019.49
2017-06-16T19:57:26.729Z,1019.44
2017-06-16T19:58:28.122Z,1019.44
2017-06-16T19:59:29.552Z,1019.51
2017-06-16T20:00:31.077Z,1019.52
2017-06-16T20:01:33.568Z,1019.54
2017-06-16T20:02:35.203Z,1019.54
2017-06-16T20:03:36.639Z,1019.54
2017-06-16T20:04:38.080Z,1019.58
2017-06-16T20:05:40.777Z,1019.58
2017-06-16T20:06:42.216Z,1019.57
2017-06-16T20:07:43.706Z,1019.57
2017-06-16T20:08:45.160Z,1019.59
2017-06-16T20:09:46.696Z,1019.61
2017-06-16T20:10:48.249Z,1019.64
2017-06-16T20:11:49.950Z,1019.66
2017-06-16T20:12:52.281Z,1019.66
2017-06-16T20:13:53.735Z,1019.62
2017-06-16T20:14:55.426Z,1019.64
2017-06-16T20:15:57.076Z,1019.66
2017-06-16T20:16:58.778Z,1019.67
2017-06-16T20:18:00.495Z,1019.67
2017-06-16T20:19:03.202Z,1019.72
2017-06-16T20:20:05.555Z,1019.73
2017-06-16T20:21:08.119Z,1019.76
2017-06-16T20:22:09.874Z,1019.77
2017-06-16T20:23:11.734Z,1019.73
2017-06-16T20:24:13.165Z,1019.75
2017-06-16T20:25:15.335Z,1019.73
2017-06-16T20:26:16.863Z,1019.77
2017-06-16T20:27:19.421Z,1019.78
2017-06-16T20:28:20.883Z,1019.77
2017-06-16T20:29:22.311Z,1019.79
2017-06-16T20:30:23.802Z,1019.82
2017-06-16T20:31:25.380Z,1019.78
2017-06-16T20:32:27.126Z,1019.77
2017-06-16T20:33:28.958Z,1019.80
2017-06-16T20:34:30.389Z,1019.85
2017-06-16T20:35:33.092Z,1019.85
2017-06-16T20:36:34.666Z,1019.80
2017-06-16T20:37:36.095Z,1019.78
2017-06-16T20:38:37.557Z,1019.83
2017-06-16T20:39:39.063Z,1019.82
2017-06-16T20:40:40.496Z,1019.88
2017-06-16T20:41:41.943Z,1019.81
2017-06-16T20:42:43.389Z,1019.84
2017-06-16T20:43:45.184Z,1019.85
2017-06-16T20:44:46.613Z,1019.82
2017-06-16T20:45:48.046Z,1019.81
2017-06-16T20:46:49.472Z,1019.84
2017-06-16T20:47:50.900Z,1019.84
2017-06-16T20:48:53.694Z,1019.90
2017-06-16T20:49:56.194Z,1019.89
2017-06-16T20:50:58.725Z,1019.88
2017-06-16T20:52:00.724Z,1019.92
2017-06-16T20:53:02.207Z,1019.93
2017-06-16T20:54:05.131Z,1019.92
2017-06-16T20:55:07.309Z,1019.92
2017-06-16T20:56:08.727Z,1019.95
2017-06-16T20:57:10.160Z,1019.91
2017-06-16T20:58:11.671Z,1019.93
2017-06-16T20:59:13.126Z,1019.90
2017-06-16T21:00:15.468Z,1019.91
2017-06-16T21:01:17.191Z,1019.89
2017-06-16T21:02:19.690Z,1019.89
2017-06-16T21:03:22.153Z,1019.88
2017-06-16T21:04:23.633Z,1019.91
2017-06-16T21:05:26.110Z,1019.92
2017-06-16T21:06:28.079Z,1019.92
2017-06-16T21:07:29.783Z,1019.92
2017-06-16T21:08:32.506Z,1019.96
2017-06-16T21:09:33.961Z,1019.91
2017-06-16T21:10:35.390Z,1019.92
2017-06-16T21:11:36.815Z,1019.94
2017-06-16T21:12:38.256Z,1019.91
2017-06-16T21:13:39.688Z,1019.91
2017-06-16T21:14:41.331Z,1019.92
2017-06-16T21:15:42.759Z,1019.97
2017-06-16T21:16:44.215Z,1020.00
2017-06-16T21:17:46.942Z,1019.96
2017-06-16T21:18:48.372Z,1020.02
2017-06-16T21:19:49.823Z,1019.99
2017-06-16T21:20:51.253Z,1020.01
2017-06-16T21:21:52.688Z,1020.06
2017-06-16T21:22:54.113Z,1020.00
2017-06-16T21:23:59.698Z,1020.03
2017-06-16T21:25:01.201Z,1020.04
2017-06-16T21:26:03.559Z,1020.02
2017-06-16T21:27:04.990Z,1019.99
2017-06-16T21:28:06.423Z,1019.98
2017-06-16T21:29:12.256Z,1020.00
2017-06-16T21:30:13.665Z,1020.01
2017-06-16T21:31:15.093Z,1020.06
2017-06-16T21:32:18.300Z,1020.05
2017-06-16T21:33:19.731Z,1020.03
2017-06-16T21:34:21.158Z,1020.02
2017-06-16T21:35:22.620Z,1020.04
2017-06-16T21:36:24.260Z,1020.05
2017-06-16T21:37:25.688Z,1020.07
2017-06-16T21:38:27.115Z,1020.07
2017-06-16T21:39:28.563Z,1020.09
2017-06-16T21:40:30.023Z,1020.09
2017-06-16T21:41:31.452Z,1020.15
2017-06-16T21:42:32.881Z,1020.17
2017-06-16T21:43:38.872Z,1020.17
2017-06-16T21:44:40.259Z,1020.11
2017-06-16T21:45:43.151Z,1020.11
2017-06-16T21:46:46.634Z,1020.13
2017-06-16T21:47:48.061Z,1020.11
2017-06-16T21:48:49.489Z,1020.06
2017-06-16T21:49:53.808Z,1020.04
2017-06-16T21:50:55.219Z,1020.04
2017-06-16T21:51:58.359Z,1020.00
2017-06-16T21:52:59.980Z,1020.04
2017-06-16T21:54:01.415Z,1020.06
2017-06-16T21:55:02.844Z,1020.04
2017-06-16T21:56:04.302Z,1020.03
2017-06-16T21:57:06.635Z,1020.04
2017-06-16T21:58:08.732Z,1020.00
2017-06-16T21:59:10.111Z,1020.03
2017-06-16T22:00:11.550Z,1020.06
2017-06-16T22:01:13.004Z,1020.06
2017-06-16T22:02:14.435Z,1020.07
2017-06-16T22:03:15.865Z,1020.04
2017-06-16T22:04:17.311Z,1020.04